sensor_id;sensor_type;location;lat;lon;timestamp;pressure;altitude;pressure_sealevel;temperature;humidity
65384;BME280;51986;52.788;41.368;2023-11-19T00:00:39;100173.06;;;-6.31;56.65
65384;BME280;51986;52.788;41.368;2023-11-19T00:03:06;100153.84;;;-6.38;57.21
65384;BME280;51986;52.788;41.368;2023-11-19T00:05:33;100152.03;;;-6.43;57.31
65384;BME280;51986;52.788;41.368;2023-11-19T00:08:00;100146.13;;;-6.33;57.37
65384;BME280;51986;52.788;41.368;2023-11-19T00:10:27;100131.25;;;-6.52;57.11
65384;BME280;51986;52.788;41.368;2023-11-19T00:12:54;100147.66;;;-6.27;56.99
65384;BME280;51986;52.788;41.368;2023-11-19T00:15:21;100143.81;;;-6.45;56.93
65384;BME280;51986;52.788;41.368;2023-11-19T00:17:48;100124.03;;;-6.34;57.40
65384;BME280;51986;52.788;41.368;2023-11-19T00:20:18;100115.81;;;-6.36;57.10
65384;BME280;51986;52.788;41.368;2023-11-19T00:22:45;100168.69;;;-6.15;56.80
65384;BME280;51986;52.788;41.368;2023-11-19T00:25:21;100118.09;;;-6.20;56.58
65384;BME280;51986;52.788;41.368;2023-11-19T00:27:48;100116.81;;;-6.12;55.74
65384;BME280;51986;52.788;41.368;2023-11-19T00:30:15;100130.66;;;-6.03;56.24
65384;BME280;51986;52.788;41.368;2023-11-19T00:32:42;100151.50;;;-6.09;55.66
65384;BME280;51986;52.788;41.368;2023-11-19T00:35:09;100143.78;;;-6.20;56.31
65384;BME280;51986;52.788;41.368;2023-11-19T00:37:36;100142.25;;;-6.26;56.68
65384;BME280;51986;52.788;41.368;2023-11-19T00:40:04;100155.09;;;-6.36;56.38
65384;BME280;51986;52.788;41.368;2023-11-19T00:42:31;100132.72;;;-6.05;55.41
65384;BME280;51986;52.788;41.368;2023-11-19T00:44:58;100110.66;;;-6.26;56.44
65384;BME280;51986;52.788;41.368;2023-11-19T00:47:25;100128.63;;;-6.11;55.37
65384;BME280;51986;52.788;41.368;2023-11-19T00:49:52;100142.53;;;-6.27;55.81
65384;BME280;51986;52.788;41.368;2023-11-19T00:52:19;100121.44;;;-6.09;55.75
65384;BME280;51986;52.788;41.368;2023-11-19T00:54:46;100124.50;;;-6.12;55.37
65384;BME280;51986;52.788;41.368;2023-11-19T00:57:13;100161.97;;;-5.85;54.99
65384;BME280;51986;52.788;41.368;2023-11-19T00:59:43;100148.63;;;-5.93;54.95
65384;BME280;51986;52.788;41.368;2023-11-19T01:02:10;100159.41;;;-5.91;54.30
65384;BME280;51986;52.788;41.368;2023-11-19T01:04:37;100137.06;;;-5.90;55.31
65384;BME280;51986;52.788;41.368;2023-11-19T01:07:05;100153.81;;;-6.74;55.47
65384;BME280;51986;52.788;41.368;2023-11-19T01:09:32;100143.28;;;-6.32;55.67
65384;BME280;51986;52.788;41.368;2023-11-19T01:12:00;100167.13;;;-6.06;55.32
65384;BME280;51986;52.788;41.368;2023-11-19T01:14:28;100138.38;;;-6.08;55.26
65384;BME280;51986;52.788;41.368;2023-11-19T01:16:56;100135.34;;;-6.51;55.83
65384;BME280;51986;52.788;41.368;2023-11-19T01:19:23;100153.28;;;-6.25;55.97
65384;BME280;51986;52.788;41.368;2023-11-19T01:21:51;100126.81;;;-6.16;55.12
65384;BME280;51986;52.788;41.368;2023-11-19T01:24:17;100151.00;;;-6.27;55.23
65384;BME280;51986;52.788;41.368;2023-11-19T01:26:46;100112.75;;;-6.69;56.17
65384;BME280;51986;52.788;41.368;2023-11-19T01:29:14;100150.72;;;-6.30;55.71
65384;BME280;51986;52.788;41.368;2023-11-19T01:31:41;100152.81;;;-6.37;56.25
65384;BME280;51986;52.788;41.368;2023-11-19T01:34:10;100158.97;;;-6.38;56.05
65384;BME280;51986;52.788;41.368;2023-11-19T01:36:37;100151.75;;;-6.31;55.35
65384;BME280;51986;52.788;41.368;2023-11-19T01:39:04;100155.38;;;-6.43;55.77
65384;BME280;51986;52.788;41.368;2023-11-19T01:41:35;100133.81;;;-6.62;56.53
65384;BME280;51986;52.788;41.368;2023-11-19T01:44:03;100155.09;;;-6.72;56.55
65384;BME280;51986;52.788;41.368;2023-11-19T01:46:30;100177.44;;;-6.57;56.03
65384;BME280;51986;52.788;41.368;2023-11-19T01:48:59;100148.94;;;-6.71;56.10
65384;BME280;51986;52.788;41.368;2023-11-19T01:51:27;100187.44;;;-6.50;55.74
65384;BME280;51986;52.788;41.368;2023-11-19T01:53:55;100159.97;;;-6.65;55.87
65384;BME280;51986;52.788;41.368;2023-11-19T01:56:22;100181.03;;;-6.48;56.12
65384;BME280;51986;52.788;41.368;2023-11-19T01:58:50;100183.34;;;-6.61;55.80
65384;BME280;51986;52.788;41.368;2023-11-19T02:01:17;100131.25;;;-6.57;55.73
65384;BME280;51986;52.788;41.368;2023-11-19T02:03:44;100174.34;;;-6.59;56.31
65384;BME280;51986;52.788;41.368;2023-11-19T02:06:11;100165.88;;;-6.64;56.50
65384;BME280;51986;52.788;41.368;2023-11-19T02:08:38;100171.53;;;-6.47;56.54
65384;BME280;51986;52.788;41.368;2023-11-19T02:11:06;100165.38;;;-6.61;56.07
65384;BME280;51986;52.788;41.368;2023-11-19T02:13:33;100135.56;;;-6.78;55.95
65384;BME280;51986;52.788;41.368;2023-11-19T02:16:00;100169.19;;;-6.84;57.15
65384;BME280;51986;52.788;41.368;2023-11-19T02:18:27;100160.19;;;-6.82;57.15
65384;BME280;51986;52.788;41.368;2023-11-19T02:20:58;100176.88;;;-6.89;57.34
65384;BME280;51986;52.788;41.368;2023-11-19T02:23:27;100169.94;;;-6.89;56.51
65384;BME280;51986;52.788;41.368;2023-11-19T02:26:14;100174.56;;;-6.86;56.48
65384;BME280;51986;52.788;41.368;2023-11-19T02:28:42;100164.81;;;-6.89;57.13
65384;BME280;51986;52.788;41.368;2023-11-19T02:31:10;100194.84;;;-6.74;56.37
65384;BME280;51986;52.788;41.368;2023-11-19T02:33:38;100190.47;;;-6.89;57.19
65384;BME280;51986;52.788;41.368;2023-11-19T02:36:06;100172.00;;;-6.86;56.62
65384;BME280;51986;52.788;41.368;2023-11-19T02:38:35;100170.41;;;-7.02;56.91
65384;BME280;51986;52.788;41.368;2023-11-19T02:41:06;100180.47;;;-6.85;56.82
65384;BME280;51986;52.788;41.368;2023-11-19T02:43:34;100160.19;;;-6.92;57.23
65384;BME280;51986;52.788;41.368;2023-11-19T02:46:02;100187.00;;;-7.25;57.10
65384;BME280;51986;52.788;41.368;2023-11-19T02:48:41;100189.09;;;-7.17;57.28
65384;BME280;51986;52.788;41.368;2023-11-19T02:51:08;100172.13;;;-7.38;58.00
65384;BME280;51986;52.788;41.368;2023-11-19T02:53:36;100152.59;;;-7.55;58.39
65384;BME280;51986;52.788;41.368;2023-11-19T02:56:03;100161.34;;;-7.46;57.62
65384;BME280;51986;52.788;41.368;2023-11-19T02:58:30;100172.13;;;-7.33;57.37
65384;BME280;51986;52.788;41.368;2023-11-19T03:00:57;100157.72;;;-7.50;57.90
65384;BME280;51986;52.788;41.368;2023-11-19T03:03:25;100144.91;;;-7.55;57.90
65384;BME280;51986;52.788;41.368;2023-11-19T03:05:52;100143.63;;;-7.52;57.91
65384;BME280;51986;52.788;41.368;2023-11-19T03:08:19;100189.97;;;-7.59;58.43
65384;BME280;51986;52.788;41.368;2023-11-19T03:10:49;100188.50;;;-7.39;58.11
65384;BME280;51986;52.788;41.368;2023-11-19T03:13:16;100185.16;;;-7.50;58.34
65384;BME280;51986;52.788;41.368;2023-11-19T03:15:44;100168.53;;;-7.48;58.02
65384;BME280;51986;52.788;41.368;2023-11-19T03:18:11;100167.19;;;-7.55;57.97
65384;BME280;51986;52.788;41.368;2023-11-19T03:20:39;100163.59;;;-7.54;58.78
65384;BME280;51986;52.788;41.368;2023-11-19T03:23:06;100157.66;;;-7.70;59.05
65384;BME280;51986;52.788;41.368;2023-11-19T03:25:32;100156.91;;;-7.65;59.19
65384;BME280;51986;52.788;41.368;2023-11-19T03:28:00;100137.03;;;-7.96;60.04
65384;BME280;51986;52.788;41.368;2023-11-19T03:30:28;100149.88;;;-7.85;59.76
65384;BME280;51986;52.788;41.368;2023-11-19T03:32:58;100151.91;;;-7.87;60.16
65384;BME280;51986;52.788;41.368;2023-11-19T03:35:25;100125.44;;;-7.56;59.03
65384;BME280;51986;52.788;41.368;2023-11-19T03:37:52;100120.31;;;-7.40;58.32
65384;BME280;51986;52.788;41.368;2023-11-19T03:40:19;100134.19;;;-7.26;58.59
65384;BME280;51986;52.788;41.368;2023-11-19T03:42:46;100136.97;;;-7.53;58.93
65384;BME280;51986;52.788;41.368;2023-11-19T03:45:14;100121.38;;;-7.41;59.07
65384;BME280;51986;52.788;41.368;2023-11-19T03:47:42;100130.13;;;-7.12;57.76
65384;BME280;51986;52.788;41.368;2023-11-19T03:50:09;100106.78;;;-7.21;58.54
65384;BME280;51986;52.788;41.368;2023-11-19T03:52:36;100120.16;;;-7.08;57.75
65384;BME280;51986;52.788;41.368;2023-11-19T03:55:06;100114.75;;;-7.12;57.30
65384;BME280;51986;52.788;41.368;2023-11-19T03:57:34;100105.56;;;-6.93;57.15
65384;BME280;51986;52.788;41.368;2023-11-19T04:00:02;100098.09;;;-7.04;57.54
65384;BME280;51986;52.788;41.368;2023-11-19T04:02:38;100103.44;;;-7.41;57.78
65384;BME280;51986;52.788;41.368;2023-11-19T04:05:06;100087.31;;;-7.22;58.37
65384;BME280;51986;52.788;41.368;2023-11-19T04:07:33;100090.13;;;-7.28;58.38
65384;BME280;51986;52.788;41.368;2023-11-19T04:10:00;100103.97;;;-7.19;58.71
65384;BME280;51986;52.788;41.368;2023-11-19T04:12:27;100123.16;;;-7.47;59.12
65384;BME280;51986;52.788;41.368;2023-11-19T04:14:54;100108.56;;;-7.26;59.71
65384;BME280;51986;52.788;41.368;2023-11-19T04:17:24;100092.69;;;-7.43;59.30
65384;BME280;51986;52.788;41.368;2023-11-19T04:19:51;100104.69;;;-7.44;59.58
65384;BME280;51986;52.788;41.368;2023-11-19T04:22:18;100099.34;;;-7.27;59.84
65384;BME280;51986;52.788;41.368;2023-11-19T04:24:45;100094.72;;;-7.30;58.91
65384;BME280;51986;52.788;41.368;2023-11-19T04:27:12;100109.63;;;-7.12;59.37
65384;BME280;51986;52.788;41.368;2023-11-19T04:29:39;100102.19;;;-7.13;59.08
65384;BME280;51986;52.788;41.368;2023-11-19T04:32:06;100100.19;;;-6.81;58.13
65384;BME280;51986;52.788;41.368;2023-11-19T04:34:33;100099.38;;;-7.02;57.90
65384;BME280;51986;52.788;41.368;2023-11-19T04:37:00;100126.06;;;-7.03;59.33
65384;BME280;51986;52.788;41.368;2023-11-19T04:39:39;100123.28;;;-6.55;58.08
65384;BME280;51986;52.788;41.368;2023-11-19T04:42:06;100126.09;;;-6.47;57.60
65384;BME280;51986;52.788;41.368;2023-11-19T04:44:33;100118.66;;;-6.58;56.90
65384;BME280;51986;52.788;41.368;2023-11-19T04:47:00;100119.16;;;-6.51;57.06
65384;BME280;51986;52.788;41.368;2023-11-19T04:49:27;100118.16;;;-6.55;57.69
65384;BME280;51986;52.788;41.368;2023-11-19T04:51:55;100133.28;;;-6.84;57.88
65384;BME280;51986;52.788;41.368;2023-11-19T04:54:22;100131.25;;;-6.67;58.60
65384;BME280;51986;52.788;41.368;2023-11-19T04:56:49;100105.03;;;-6.54;57.96
65384;BME280;51986;52.788;41.368;2023-11-19T04:59:16;100136.09;;;-6.30;57.44
65384;BME280;51986;52.788;41.368;2023-11-19T05:01:46;100113.22;;;-6.11;57.27
65384;BME280;51986;52.788;41.368;2023-11-19T05:04:14;100104.47;;;-6.00;56.88
65384;BME280;51986;52.788;41.368;2023-11-19T05:06:41;100086.22;;;-6.03;56.73
65384;BME280;51986;52.788;41.368;2023-11-19T05:09:08;100082.41;;;-6.16;56.96
65384;BME280;51986;52.788;41.368;2023-11-19T05:11:35;100093.72;;;-6.17;56.29
65384;BME280;51986;52.788;41.368;2023-11-19T05:14:03;100099.91;;;-6.33;56.86
65384;BME280;51986;52.788;41.368;2023-11-19T05:16:29;100123.78;;;-6.38;57.65
65384;BME280;51986;52.788;41.368;2023-11-19T05:18:57;100119.41;;;-6.37;57.74
65384;BME280;51986;52.788;41.368;2023-11-19T05:21:24;100110.91;;;-6.07;57.10
65384;BME280;51986;52.788;41.368;2023-11-19T05:23:51;100115.75;;;-6.01;57.16
65384;BME280;51986;52.788;41.368;2023-11-19T05:26:19;100101.19;;;-6.31;57.43
65384;BME280;51986;52.788;41.368;2023-11-19T05:28:47;100085.53;;;-6.50;58.23
65384;BME280;51986;52.788;41.368;2023-11-19T05:31:15;100087.53;;;-6.11;57.63
65384;BME280;51986;52.788;41.368;2023-11-19T05:33:43;100063.91;;;-6.13;57.11
65384;BME280;51986;52.788;41.368;2023-11-19T05:36:11;100063.78;;;-5.82;56.88
65384;BME280;51986;52.788;41.368;2023-11-19T05:38:38;100060.66;;;-5.69;56.50
65384;BME280;51986;52.788;41.368;2023-11-19T05:41:06;100075.78;;;-5.63;56.54
65384;BME280;51986;52.788;41.368;2023-11-19T05:43:33;100073.13;;;-6.07;57.53
65384;BME280;51986;52.788;41.368;2023-11-19T05:46:00;100084.97;;;-6.16;58.31
65384;BME280;51986;52.788;41.368;2023-11-19T05:48:28;100078.50;;;-5.93;57.94
65384;BME280;51986;52.788;41.368;2023-11-19T05:50:55;100085.44;;;-5.94;57.10
65384;BME280;51986;52.788;41.368;2023-11-19T05:53:23;100102.53;;;-5.64;57.04
65384;BME280;51986;52.788;41.368;2023-11-19T05:55:50;100048.78;;;-5.55;56.37
65384;BME280;51986;52.788;41.368;2023-11-19T05:58:17;100075.38;;;-5.30;56.21
65384;BME280;51986;52.788;41.368;2023-11-19T06:00:46;100085.78;;;-5.51;56.64
65384;BME280;51986;52.788;41.368;2023-11-19T06:03:14;100074.78;;;-5.61;57.38
65384;BME280;51986;52.788;41.368;2023-11-19T06:05:41;100094.59;;;-5.18;56.37
65384;BME280;51986;52.788;41.368;2023-11-19T06:08:08;100086.31;;;-5.15;55.56
65384;BME280;51986;52.788;41.368;2023-11-19T06:10:35;100077.03;;;-5.50;56.54
65384;BME280;51986;52.788;41.368;2023-11-19T06:13:02;100089.75;;;-5.29;56.02
65384;BME280;51986;52.788;41.368;2023-11-19T06:15:28;100083.03;;;-5.70;57.38
65384;BME280;51986;52.788;41.368;2023-11-19T06:17:56;100070.94;;;-5.69;58.20
65384;BME280;51986;52.788;41.368;2023-11-19T06:20:23;100098.72;;;-5.71;58.30
65384;BME280;51986;52.788;41.368;2023-11-19T06:22:49;100070.34;;;-5.51;58.31
65384;BME280;51986;52.788;41.368;2023-11-19T06:25:16;100110.97;;;-5.03;57.34
65384;BME280;51986;52.788;41.368;2023-11-19T06:27:44;100079.66;;;-5.16;56.63
65384;BME280;51986;52.788;41.368;2023-11-19T06:30:11;100103.97;;;-4.98;56.39
65384;BME280;51986;52.788;41.368;2023-11-19T06:32:39;100106.28;;;-4.62;56.28
65384;BME280;51986;52.788;41.368;2023-11-19T06:35:06;100045.09;;;-4.70;56.58
65384;BME280;51986;52.788;41.368;2023-11-19T06:37:34;100081.00;;;-4.55;56.42
65384;BME280;51986;52.788;41.368;2023-11-19T06:40:02;100101.03;;;-4.52;56.93
65384;BME280;51986;52.788;41.368;2023-11-19T06:42:29;100073.13;;;-4.40;56.68
65384;BME280;51986;52.788;41.368;2023-11-19T06:44:56;100070.69;;;-4.55;56.87
65384;BME280;51986;52.788;41.368;2023-11-19T06:47:27;100040.81;;;-4.51;57.60
65384;BME280;51986;52.788;41.368;2023-11-19T06:49:54;100062.75;;;-4.58;57.26
65384;BME280;51986;52.788;41.368;2023-11-19T06:52:21;100073.22;;;-4.50;57.15
65384;BME280;51986;52.788;41.368;2023-11-19T06:54:48;100054.50;;;-4.31;56.84
65384;BME280;51986;52.788;41.368;2023-11-19T06:57:15;100065.59;;;-4.07;56.26
65384;BME280;51986;52.788;41.368;2023-11-19T06:59:43;100050.00;;;-3.97;55.81
65384;BME280;51986;52.788;41.368;2023-11-19T07:02:10;100058.75;;;-4.17;56.10
65384;BME280;51986;52.788;41.368;2023-11-19T07:04:37;100050.00;;;-4.45;57.30
65384;BME280;51986;52.788;41.368;2023-11-19T07:07:04;100044.69;;;-4.29;57.08
65384;BME280;51986;52.788;41.368;2023-11-19T07:09:31;100062.78;;;-4.11;57.12
65384;BME280;51986;52.788;41.368;2023-11-19T07:11:58;100062.59;;;-3.95;56.65
65384;BME280;51986;52.788;41.368;2023-11-19T07:14:25;100061.84;;;-4.20;57.11
65384;BME280;51986;52.788;41.368;2023-11-19T07:16:52;100036.84;;;-4.43;57.81
65384;BME280;51986;52.788;41.368;2023-11-19T07:19:19;100075.19;;;-4.66;58.91
65384;BME280;51986;52.788;41.368;2023-11-19T07:21:46;100028.19;;;-4.81;59.37
65384;BME280;51986;52.788;41.368;2023-11-19T07:24:13;100042.53;;;-4.70;59.03
65384;BME280;51986;52.788;41.368;2023-11-19T07:26:44;100100.91;;;-4.07;58.48
65384;BME280;51986;52.788;41.368;2023-11-19T07:29:11;100052.94;;;-4.27;58.12
65384;BME280;51986;52.788;41.368;2023-11-19T07:31:38;100087.72;;;-4.30;59.05
65384;BME280;51986;52.788;41.368;2023-11-19T07:34:05;100062.41;;;-3.99;58.18
65384;BME280;51986;52.788;41.368;2023-11-19T07:36:32;100083.34;;;-3.82;58.00
65384;BME280;51986;52.788;41.368;2023-11-19T07:38:59;100060.84;;;-3.76;57.77
65384;BME280;51986;52.788;41.368;2023-11-19T07:41:26;100068.47;;;-3.47;57.06
65384;BME280;51986;52.788;41.368;2023-11-19T07:43:54;100070.97;;;-3.42;57.21
65384;BME280;51986;52.788;41.368;2023-11-19T07:46:21;100058.91;;;-3.27;57.39
65384;BME280;51986;52.788;41.368;2023-11-19T07:48:48;100082.97;;;-2.81;56.17
65384;BME280;51986;52.788;41.368;2023-11-19T07:51:15;100059.69;;;-3.08;56.24
65384;BME280;51986;52.788;41.368;2023-11-19T07:53:42;100063.03;;;-3.26;56.24
65384;BME280;51986;52.788;41.368;2023-11-19T07:56:09;100054.25;;;-3.25;56.74
65384;BME280;51986;52.788;41.368;2023-11-19T07:58:36;100060.06;;;-3.01;56.63
65384;BME280;51986;52.788;41.368;2023-11-19T08:01:04;100061.44;;;-2.57;55.73
65384;BME280;51986;52.788;41.368;2023-11-19T08:03:32;100024.63;;;-2.49;55.90
65384;BME280;51986;52.788;41.368;2023-11-19T08:05:59;100028.59;;;-2.70;56.20
65384;BME280;51986;52.788;41.368;2023-11-19T08:08:26;100016.94;;;-2.54;55.95
65384;BME280;51986;52.788;41.368;2023-11-19T08:10:53;100036.09;;;-2.55;55.81
65384;BME280;51986;52.788;41.368;2023-11-19T08:13:20;100052.16;;;-2.03;55.13
65384;BME280;51986;52.788;41.368;2023-11-19T08:15:47;100030.66;;;-2.40;55.83
65384;BME280;51986;52.788;41.368;2023-11-19T08:18:14;100041.06;;;-2.17;55.34
65384;BME280;51986;52.788;41.368;2023-11-19T08:20:41;100038.75;;;-2.46;55.94
65384;BME280;51986;52.788;41.368;2023-11-19T08:23:09;100027.38;;;-2.18;55.71
65384;BME280;51986;52.788;41.368;2023-11-19T08:25:36;100047.28;;;-1.91;55.49
65384;BME280;51986;52.788;41.368;2023-11-19T08:28:03;100048.94;;;-2.36;55.80
65384;BME280;51986;52.788;41.368;2023-11-19T08:30:30;100020.69;;;-2.33;56.22
65384;BME280;51986;52.788;41.368;2023-11-19T08:32:57;100027.56;;;-2.28;56.95
65384;BME280;51986;52.788;41.368;2023-11-19T08:35:24;100029.78;;;-2.21;56.09
65384;BME280;51986;52.788;41.368;2023-11-19T08:37:51;100002.56;;;-2.88;57.78
65384;BME280;51986;52.788;41.368;2023-11-19T08:40:18;100040.09;;;-2.49;57.22
65384;BME280;51986;52.788;41.368;2023-11-19T08:42:45;100024.44;;;-2.11;57.19
65384;BME280;51986;52.788;41.368;2023-11-19T08:45:13;99989.31;;;-2.12;56.40
65384;BME280;51986;52.788;41.368;2023-11-19T08:47:40;99994.75;;;-2.28;56.47
65384;BME280;51986;52.788;41.368;2023-11-19T08:50:07;100013.88;;;-2.01;56.85
65384;BME280;51986;52.788;41.368;2023-11-19T08:52:34;100011.31;;;-2.42;57.74
65384;BME280;51986;52.788;41.368;2023-11-19T08:55:01;100002.59;;;-2.05;57.42
65384;BME280;51986;52.788;41.368;2023-11-19T08:57:28;100010.25;;;-2.14;57.65
65384;BME280;51986;52.788;41.368;2023-11-19T08:59:55;100022.09;;;-2.13;57.67
65384;BME280;51986;52.788;41.368;2023-11-19T09:02:23;99999.78;;;-1.95;57.38
65384;BME280;51986;52.788;41.368;2023-11-19T09:04:50;100000.84;;;-1.96;57.03
65384;BME280;51986;52.788;41.368;2023-11-19T09:07:20;99996.09;;;-2.03;57.86
65384;BME280;51986;52.788;41.368;2023-11-19T09:09:47;99980.50;;;-2.25;57.93
65384;BME280;51986;52.788;41.368;2023-11-19T09:12:14;100000.84;;;-1.96;57.79
65384;BME280;51986;52.788;41.368;2023-11-19T09:14:41;99969.94;;;-2.01;57.38
65384;BME280;51986;52.788;41.368;2023-11-19T09:17:08;99986.84;;;-1.81;57.93
65384;BME280;51986;52.788;41.368;2023-11-19T09:19:35;99978.19;;;-1.77;57.84
65384;BME280;51986;52.788;41.368;2023-11-19T09:22:03;99942.34;;;-1.92;57.83
65384;BME280;51986;52.788;41.368;2023-11-19T09:24:30;99959.00;;;-1.39;57.22
65384;BME280;51986;52.788;41.368;2023-11-19T09:26:57;99952.69;;;-1.47;56.90
65384;BME280;51986;52.788;41.368;2023-11-19T09:29:24;99960.63;;;-1.66;57.56
65384;BME280;51986;52.788;41.368;2023-11-19T09:31:51;99978.22;;;-1.54;57.42
65384;BME280;51986;52.788;41.368;2023-11-19T09:34:18;99965.00;;;-1.30;56.89
65384;BME280;51986;52.788;41.368;2023-11-19T09:36:45;99968.34;;;-1.52;58.31
65384;BME280;51986;52.788;41.368;2023-11-19T09:39:12;99964.34;;;-1.36;58.33
65384;BME280;51986;52.788;41.368;2023-11-19T09:41:40;99950.69;;;-1.28;58.31
65384;BME280;51986;52.788;41.368;2023-11-19T09:44:08;99950.75;;;-1.19;58.13
65384;BME280;51986;52.788;41.368;2023-11-19T09:46:38;99952.81;;;-0.99;56.98
65384;BME280;51986;52.788;41.368;2023-11-19T09:49:06;99961.19;;;-1.02;57.71
65384;BME280;51986;52.788;41.368;2023-11-19T09:51:33;99950.00;;;-0.80;57.95
65384;BME280;51986;52.788;41.368;2023-11-19T09:54:00;99960.66;;;-1.21;59.10
65384;BME280;51986;52.788;41.368;2023-11-19T09:56:29;99934.56;;;-1.92;61.69
65384;BME280;51986;52.788;41.368;2023-11-19T09:58:56;99932.50;;;-1.45;60.94
65384;BME280;51986;52.788;41.368;2023-11-19T10:01:23;99936.56;;;-1.21;59.75
65384;BME280;51986;52.788;41.368;2023-11-19T10:03:55;99922.13;;;-1.14;59.96
65384;BME280;51986;52.788;41.368;2023-11-19T10:06:24;99906.91;;;-1.15;60.64
65384;BME280;51986;52.788;41.368;2023-11-19T10:08:51;99921.56;;;-1.64;62.03
65384;BME280;51986;52.788;41.368;2023-11-19T10:11:19;99895.97;;;-1.66;62.39
65384;BME280;51986;52.788;41.368;2023-11-19T10:13:46;99925.63;;;-1.41;62.00
65384;BME280;51986;52.788;41.368;2023-11-19T10:16:14;99884.53;;;-1.42;61.16
65384;BME280;51986;52.788;41.368;2023-11-19T10:18:48;99885.09;;;-1.77;63.25
65384;BME280;51986;52.788;41.368;2023-11-19T10:21:18;99871.66;;;-1.56;62.29
65384;BME280;51986;52.788;41.368;2023-11-19T10:23:52;99879.34;;;-1.73;63.38
65384;BME280;51986;52.788;41.368;2023-11-19T10:26:20;99895.91;;;-1.97;64.43
65384;BME280;51986;52.788;41.368;2023-11-19T10:28:47;99890.63;;;-1.92;64.41
65384;BME280;51986;52.788;41.368;2023-11-19T10:31:16;99861.06;;;-1.46;62.98
65384;BME280;51986;52.788;41.368;2023-11-19T10:33:44;99861.06;;;-1.46;62.96
65384;BME280;51986;52.788;41.368;2023-11-19T10:36:12;99851.25;;;-1.27;62.25
65384;BME280;51986;52.788;41.368;2023-11-19T10:38:40;99867.09;;;-1.28;62.37
65384;BME280;51986;52.788;41.368;2023-11-19T10:41:07;99844.41;;;-1.62;63.32
65384;BME280;51986;52.788;41.368;2023-11-19T10:43:44;99865.44;;;-1.24;63.30
65384;BME280;51986;52.788;41.368;2023-11-19T10:46:12;99874.31;;;-1.16;62.77
65384;BME280;51986;52.788;41.368;2023-11-19T10:48:40;99852.69;;;-1.12;62.68
65384;BME280;51986;52.788;41.368;2023-11-19T10:51:07;99870.81;;;-1.20;62.43
65384;BME280;51986;52.788;41.368;2023-11-19T10:53:38;99844.41;;;-1.31;62.88
65384;BME280;51986;52.788;41.368;2023-11-19T10:56:10;99840.22;;;-1.49;63.43
65384;BME280;51986;52.788;41.368;2023-11-19T10:58:44;99842.13;;;-1.33;62.83
65384;BME280;51986;52.788;41.368;2023-11-19T11:01:19;99819.81;;;-1.11;62.73
65384;BME280;51986;52.788;41.368;2023-11-19T11:03:47;99820.59;;;-1.11;62.70
65384;BME280;51986;52.788;41.368;2023-11-19T11:06:14;99832.03;;;-1.43;63.76
65384;BME280;51986;52.788;41.368;2023-11-19T11:08:41;99824.13;;;-1.38;63.53
65384;BME280;51986;52.788;41.368;2023-11-19T11:11:13;99820.00;;;-0.99;62.58
65384;BME280;51986;52.788;41.368;2023-11-19T11:13:44;99830.03;;;-1.06;62.92
65384;BME280;51986;52.788;41.368;2023-11-19T11:16:13;99818.41;;;-1.17;62.88
65384;BME280;51986;52.788;41.368;2023-11-19T11:18:41;99839.28;;;-1.14;63.64
65384;BME280;51986;52.788;41.368;2023-11-19T11:21:21;99819.81;;;-1.11;63.81
65384;BME280;51986;52.788;41.368;2023-11-19T11:35:25;99797.47;;;-0.90;63.14
65384;BME280;51986;52.788;41.368;2023-11-19T11:38:02;99802.31;;;-1.06;63.41
65384;BME280;51986;52.788;41.368;2023-11-19T11:40:30;99789.66;;;-1.16;64.11
65384;BME280;51986;52.788;41.368;2023-11-19T11:42:57;99823.22;;;-1.33;64.46
65384;BME280;51986;52.788;41.368;2023-11-19T11:45:39;99826.78;;;-1.20;64.47
65384;BME280;51986;52.788;41.368;2023-11-19T11:48:17;99820.44;;;-1.45;65.92
65384;BME280;51986;52.788;41.368;2023-11-19T11:50:54;99821.63;;;-1.20;64.34
65384;BME280;51986;52.788;41.368;2023-11-19T11:53:23;99828.31;;;-1.19;65.24
65384;BME280;51986;52.788;41.368;2023-11-19T11:58:18;99822.63;;;-0.90;63.76
65384;BME280;51986;52.788;41.368;2023-11-19T12:00:47;99833.94;;;-0.78;63.73
65384;BME280;51986;52.788;41.368;2023-11-19T12:03:14;99826.31;;;-0.65;63.22
65384;BME280;51986;52.788;41.368;2023-11-19T12:05:45;99821.28;;;-0.62;63.42
65384;BME280;51986;52.788;41.368;2023-11-19T12:08:14;99836.81;;;-0.70;63.71
65384;BME280;51986;52.788;41.368;2023-11-19T12:10:53;99794.91;;;-0.73;63.31
65384;BME280;51986;52.788;41.368;2023-11-19T12:13:21;99821.75;;;-0.68;63.24
65384;BME280;51986;52.788;41.368;2023-11-19T12:18:30;99817.03;;;-0.66;63.79
65384;BME280;51986;52.788;41.368;2023-11-19T12:20:58;99826.50;;;-0.53;63.26
65384;BME280;51986;52.788;41.368;2023-11-19T12:23:29;99832.09;;;-0.60;63.38
65384;BME280;51986;52.788;41.368;2023-11-19T12:25:57;99856.50;;;-0.61;63.45
65384;BME280;51986;52.788;41.368;2023-11-19T12:28:25;99848.16;;;-0.49;62.95
65384;BME280;51986;52.788;41.368;2023-11-19T12:30:52;99848.28;;;-0.37;62.87
65384;BME280;51986;52.788;41.368;2023-11-19T12:33:20;99871.56;;;-0.71;63.69
65384;BME280;51986;52.788;41.368;2023-11-19T12:35:48;99853.16;;;-0.35;62.58
65384;BME280;51986;52.788;41.368;2023-11-19T12:38:23;99845.81;;;-0.59;63.62
65384;BME280;51986;52.788;41.368;2023-11-19T12:41:08;99861.56;;;-0.47;63.24
65384;BME280;51986;52.788;41.368;2023-11-19T12:43:36;99888.22;;;-0.55;63.33
65384;BME280;51986;52.788;41.368;2023-11-19T12:46:24;99849.53;;;-0.43;63.66
65384;BME280;51986;52.788;41.368;2023-11-19T12:48:55;99847.38;;;-0.58;63.38
65384;BME280;51986;52.788;41.368;2023-11-19T12:51:31;99800.50;;;-0.88;63.72
65384;BME280;51986;52.788;41.368;2023-11-19T12:53:58;99835.94;;;-0.57;63.63
65384;BME280;51986;52.788;41.368;2023-11-19T12:56:25;99878.75;;;-0.68;63.46
65384;BME280;51986;52.788;41.368;2023-11-19T12:58:52;99870.34;;;-0.65;63.96
65384;BME280;51986;52.788;41.368;2023-11-19T13:01:21;99845.56;;;-0.32;63.19
65384;BME280;51986;52.788;41.368;2023-11-19T13:03:48;99824.81;;;-0.40;62.78